Time;durP1;ratioP1;P1;durP2;ratioP2;P2;SDS_P1;SDS_P2;PMS_P1;PMS_P2;Temp;Humidity;BMP_temperature;BMP_pressure;BME280_temperature;BME280_humidity;BME280_pressure;Samples;Min_cycle;Max_cycle;Signal;HPM_P1;HPM_P2
2023/05/17 00:01:17;;;;;;;3.88;1.67;;;16.40;74.90;;;;;;4888893;29;20024;-82
2023/05/17 00:03:43;;;;;;;5.65;1.70;;;16.40;75.10;;;;;;4887941;29;20067;-82
2023/05/17 00:06:08;;;;;;;4.40;1.80;;;16.40;74.80;;;;;;4887908;29;20037;-81
2023/05/17 00:08:34;;;;;;;4.80;1.85;;;16.40;74.60;;;;;;4902483;29;20029;-82
2023/05/17 00:10:59;;;;;;;4.30;1.95;;;16.40;74.80;;;;;;4881767;29;20020;-82
2023/05/17 00:13:25;;;;;;;6.45;2.13;;;16.40;74.60;;;;;;4884179;29;20506;-83
2023/05/17 00:15:50;;;;;;;3.97;1.60;;;16.40;74.70;;;;;;4888164;29;20035;-80
2023/05/17 00:18:16;;;;;;;4.22;1.75;;;16.40;74.90;;;;;;4884256;29;20028;-81
2023/05/17 00:20:42;;;;;;;3.20;1.65;;;16.40;74.80;;;;;;4889000;29;20571;-82
2023/05/17 00:23:07;;;;;;;4.47;1.70;;;16.40;74.60;;;;;;4889864;29;20028;-82
2023/05/17 00:25:33;;;;;;;4.45;1.90;;;16.40;74.50;;;;;;4905810;29;20088;-82
2023/05/17 00:27:58;;;;;;;5.00;1.90;;;16.40;74.50;;;;;;4888890;29;20032;-82
2023/05/17 00:30:23;;;;;;;4.78;2.05;;;16.40;74.50;;;;;;4904192;29;20024;-81
2023/05/17 00:32:49;;;;;;;4.10;1.70;;;16.40;74.60;;;;;;4899884;29;20028;-81
2023/05/17 00:35:14;;;;;;;4.72;1.80;;;16.40;74.80;;;;;;4887699;29;20119;-82
2023/05/17 00:37:42;;;;;;;4.07;1.70;;;16.40;74.70;;;;;;4888299;29;20025;-82
2023/05/17 00:40:08;;;;;;;5.07;1.75;;;16.40;74.80;;;;;;4888439;29;20472;-81
2023/05/17 00:42:34;;;;;;;5.72;1.88;;;16.40;74.80;;;;;;4884178;29;20035;-81
2023/05/17 00:44:59;;;;;;;4.60;1.75;;;16.40;75.10;;;;;;4884205;29;20115;-81
2023/05/17 00:47:25;;;;;;;3.97;1.80;;;16.40;75.10;;;;;;4885223;29;20059;-81
2023/05/17 00:49:50;;;;;;;4.43;1.77;;;16.40;75.10;;;;;;4886954;29;20077;-81
2023/05/17 00:52:16;;;;;;;4.50;1.98;;;16.40;75.20;;;;;;4904158;29;20032;-82
2023/05/17 00:54:41;;;;;;;5.10;1.88;;;16.30;75.30;;;;;;4886951;29;20021;-82
2023/05/17 00:57:08;;;;;;;5.00;2.08;;;16.40;75.30;;;;;;4886767;29;20026;-79
2023/05/17 00:59:34;;;;;;;4.57;2.00;;;16.40;75.40;;;;;;4886439;29;20704;-81
2023/05/17 01:02:01;;;;;;;4.53;1.80;;;16.50;75.40;;;;;;4885117;29;20417;-81
2023/05/17 01:04:28;;;;;;;4.72;1.80;;;16.50;75.40;;;;;;4884259;29;20024;-81
2023/05/17 01:06:54;;;;;;;5.93;2.10;;;16.50;75.40;;;;;;4900026;29;20142;-81
2023/05/17 01:09:20;;;;;;;5.57;1.83;;;16.50;75.40;;;;;;4884043;29;20052;-81
2023/05/17 01:11:55;;;;;;;4.63;2.10;;;16.50;75.40;;;;;;4883642;29;20028;-81
2023/05/17 01:14:43;;;;;;;5.05;1.75;;;16.50;75.50;;;;;;4883114;29;20033;-81
2023/05/17 01:17:17;;;;;;;3.83;1.70;;;16.50;75.30;;;;;;4883206;29;20032;-81
2023/05/17 01:20:20;;;;;;;5.45;1.85;;;16.50;75.10;;;;;;4884257;29;20108;-82
2023/05/17 01:23:13;;;;;;;5.30;1.92;;;16.40;75.10;;;;;;4885004;29;20039;-81
2023/05/17 01:26:03;;;;;;;5.38;2.13;;;16.40;75.20;;;;;;4884509;29;20637;-81
2023/05/17 01:28:30;;;;;;;5.20;2.20;;;16.40;75.30;;;;;;4899724;29;20033;-81
2023/05/17 01:30:57;;;;;;;5.60;2.10;;;16.40;75.40;;;;;;4884731;29;20029;-82
2023/05/17 01:33:23;;;;;;;6.07;1.90;;;16.40;75.30;;;;;;4884135;29;20486;-80
2023/05/17 01:35:49;;;;;;;5.57;2.20;;;16.30;75.10;;;;;;4883406;29;20036;-82
2023/05/17 01:38:14;;;;;;;4.40;1.80;;;16.40;75.10;;;;;;4882623;29;20040;-82
2023/05/17 01:40:55;;;;;;;6.35;2.10;;;16.30;75.10;;;;;;4900969;29;20070;-81
2023/05/17 01:43:25;;;;;;;6.32;2.30;;;16.30;75.30;;;;;;4883748;29;20123;-82
2023/05/17 01:46:29;;;;;;;5.88;2.00;;;16.30;74.70;;;;;;4884046;29;20119;-81
2023/05/17 01:49:20;;;;;;;4.70;1.98;;;16.30;74.80;;;;;;4895919;29;20041;-80
2023/05/17 01:52:17;;;;;;;6.60;1.95;;;16.30;75.00;;;;;;4882925;29;20082;-81
2023/05/17 01:54:51;;;;;;;6.15;2.22;;;16.30;74.90;;;;;;4876494;29;20139;-81
2023/05/17 01:57:19;;;;;;;6.30;2.00;;;16.30;74.90;;;;;;4883565;29;20505;-82
2023/05/17 01:59:45;;;;;;;5.10;1.92;;;16.30;74.60;;;;;;4889886;29;20121;-83
2023/05/17 02:02:12;;;;;;;5.55;2.10;;;16.30;74.60;;;;;;4894949;29;20039;-83
2023/05/17 02:04:38;;;;;;;5.90;2.47;;;16.30;74.60;;;;;;4894626;29;20035;-83
2023/05/17 02:07:04;;;;;;;5.50;2.15;;;16.20;74.40;;;;;;4894212;29;20084;-82
2023/05/17 02:09:29;;;;;;;5.80;2.17;;;16.30;74.90;;;;;;4910445;29;20096;-82
2023/05/17 02:11:55;;;;;;;6.03;2.33;;;16.30;74.80;;;;;;4893258;29;20021;-83
2023/05/17 02:14:21;;;;;;;5.15;1.98;;;16.30;74.50;;;;;;4892120;29;20056;-82
2023/05/17 02:16:46;;;;;;;5.53;2.15;;;16.30;74.80;;;;;;4892710;29;20029;-82
2023/05/17 02:19:13;;;;;;;5.72;2.00;;;16.30;74.80;;;;;;4882061;29;20393;-82
2023/05/17 02:21:38;;;;;;;5.28;2.00;;;16.30;75.00;;;;;;4883712;29;20025;-82
2023/05/17 02:24:04;;;;;;;7.28;2.50;;;16.30;75.00;;;;;;4884819;29;20032;-82
2023/05/17 02:26:30;;;;;;;5.72;2.00;;;16.30;75.00;;;;;;4891167;29;20032;-83
2023/05/17 02:28:56;;;;;;;5.40;2.30;;;16.20;74.90;;;;;;4890342;29;20038;-82
2023/05/17 02:31:23;;;;;;;5.50;2.00;;;16.30;75.10;;;;;;4907642;29;20486;-82
2023/05/17 02:33:49;;;;;;;5.07;2.00;;;16.30;75.20;;;;;;4890148;29;20029;-82
2023/05/17 02:36:14;;;;;;;4.20;1.83;;;16.30;75.30;;;;;;4889442;29;20032;-83
2023/05/17 02:38:40;;;;;;;6.07;2.42;;;16.30;75.30;;;;;;4885340;29;20028;-82
2023/05/17 02:41:05;;;;;;;5.93;2.40;;;16.30;75.40;;;;;;4884162;29;20048;-83
2023/05/17 02:43:31;;;;;;;5.70;2.42;;;16.30;75.40;;;;;;4885805;29;20413;-82
2023/05/17 02:45:56;;;;;;;5.55;2.42;;;16.40;75.50;;;;;;4888411;29;20033;-82
2023/05/17 02:48:22;;;;;;;5.40;2.30;;;16.40;75.50;;;;;;4888908;29;20028;-83
2023/05/17 02:50:47;;;;;;;5.13;2.05;;;16.40;75.40;;;;;;4895473;29;20040;-83
2023/05/17 02:53:13;;;;;;;6.72;2.33;;;16.30;75.30;;;;;;4894633;29;20051;-83
2023/05/17 02:55:38;;;;;;;5.93;2.47;;;16.40;75.40;;;;;;4893869;29;20033;-83
2023/05/17 02:58:04;;;;;;;6.50;2.22;;;16.40;75.40;;;;;;4893828;29;20035;-81
2023/05/17 03:00:29;;;;;;;7.32;2.80;;;16.40;75.30;;;;;;4893256;29;20478;-83
2023/05/17 03:02:55;;;;;;;6.70;2.30;;;16.40;75.30;;;;;;4892410;29;20035;-83
2023/05/17 03:05:20;;;;;;;7.15;2.45;;;16.30;75.20;;;;;;4892170;29;20039;-82
2023/05/17 03:07:46;;;;;;;5.93;2.33;;;16.30;75.80;;;;;;4908495;29;20028;-81
2023/05/17 03:10:11;;;;;;;6.07;2.30;;;16.30;75.40;;;;;;4891662;29;20032;-82
2023/05/17 03:12:37;;;;;;;6.30;2.25;;;16.30;75.50;;;;;;4888796;29;20029;-81
2023/05/17 03:15:03;;;;;;;4.97;2.03;;;16.30;75.50;;;;;;4880735;29;20053;-81
2023/05/17 03:17:28;;;;;;;5.90;2.30;;;16.20;75.40;;;;;;4890428;29;20097;-82
2023/05/17 03:19:54;;;;;;;5.13;2.10;;;16.30;75.40;;;;;;4886702;29;20036;-82
2023/05/17 03:22:19;;;;;;;5.95;2.28;;;16.20;75.40;;;;;;4881832;29;20025;-82
2023/05/17 03:24:45;;;;;;;6.38;2.50;;;16.20;75.30;;;;;;4888222;29;20033;-79
2023/05/17 03:27:10;;;;;;;6.53;2.78;;;16.20;75.30;;;;;;4877965;29;20039;-76
2023/05/17 03:29:36;;;;;;;7.00;2.40;;;16.20;75.20;;;;;;4876048;29;20086;-80
2023/05/17 03:32:02;;;;;;;7.35;2.40;;;16.20;75.20;;;;;;4877975;29;20405;-80
2023/05/17 03:34:28;;;;;;;6.55;2.30;;;16.20;75.00;;;;;;4881828;29;20071;-79
2023/05/17 03:36:54;;;;;;;6.93;2.40;;;16.20;75.00;;;;;;4877645;29;20029;-78
2023/05/17 03:39:21;;;;;;;6.72;2.42;;;16.30;75.00;;;;;;4876744;29;20413;-79
2023/05/17 03:41:47;;;;;;;7.22;2.65;;;16.10;74.90;;;;;;4878633;29;20112;-78
2023/05/17 03:44:14;;;;;;;6.65;2.58;;;16.20;74.60;;;;;;4879078;29;20043;-78
2023/05/17 03:46:40;;;;;;;7.15;2.75;;;16.20;74.80;;;;;;4879294;29;20041;-80
2023/05/17 03:49:06;;;;;;;8.10;2.40;;;16.00;74.60;;;;;;5072277;23;20044;-78
2023/05/17 03:51:31;;;;;;;6.18;2.40;;;16.20;74.70;;;;;;4894256;29;20036;-78
2023/05/17 03:53:58;;;;;;;6.85;2.50;;;16.20;74.70;;;;;;4918815;29;20091;-79
2023/05/17 03:56:24;;;;;;;6.53;2.22;;;16.20;74.70;;;;;;4901667;29;20039;-78
2023/05/17 04:01:23;;;;;;;6.57;2.65;;;16.20;74.60;;;;;;4952802;29;20063;-79
2023/05/17 04:08:18;;;;;;;5.30;2.30;;;16.20;74.80;;;;;;4906999;29;20038;-82
2023/05/17 04:14:25;;;;;;;6.95;2.72;;;16.10;74.80;;;;;;4937018;29;20063;-76
2023/05/17 04:16:58;;;;;;;6.72;2.50;;;16.10;75.00;;;;;;4934376;29;20035;-80
2023/05/17 04:20:20;;;;;;;;;;;;;;;;;;;;;
2023/05/17 04:23:15;;;;;;;6.50;2.53;;;16.70;75.50;;;;;;4864701;29;20041;-79
2023/05/17 04:36:48;;;;;;;6.30;2.72;;;16.30;75.20;;;;;;4944738;23;20060;-79
2023/05/17 04:44:56;;;;;;;6.63;2.30;;;16.30;75.10;;;;;;4989413;23;20560;-79
2023/05/17 04:57:48;;;;;;;7.30;2.72;;;16.20;75.10;;;;;;3837681;23;20134;-77
2023/05/17 05:00:14;;;;;;;6.22;2.40;;;16.20;75.20;;;;;;4917252;29;20152;-75
2023/05/17 05:02:41;;;;;;;7.53;2.70;;;16.20;75.20;;;;;;4921582;29;20063;-82
2023/05/17 05:05:08;;;;;;;6.65;2.75;;;16.20;75.20;;;;;;4920182;29;20500;-79
2023/05/17 05:07:38;;;;;;;7.90;2.60;;;16.20;75.20;;;;;;4920198;29;20511;-82
2023/05/17 05:10:05;;;;;;;6.82;2.80;;;16.10;74.40;;;;;;4900512;29;20515;-81
2023/05/17 05:12:30;;;;;;;6.85;2.30;;;16.10;75.10;;;;;;4902802;29;20465;-81
2023/05/17 05:14:56;;;;;;;7.57;2.67;;;16.10;74.40;;;;;;4903090;29;20024;-80
2023/05/17 05:17:21;;;;;;;8.52;2.60;;;16.10;74.40;;;;;;4901701;29;20036;-79
2023/05/17 05:19:47;;;;;;;7.25;2.80;;;16.10;74.50;;;;;;4901978;29;20032;-83
2023/05/17 05:22:12;;;;;;;8.10;2.75;;;16.10;74.50;;;;;;4909542;29;20083;-84
2023/05/17 05:24:38;;;;;;;7.95;3.10;;;16.10;74.50;;;;;;4913914;29;20124;-85
2023/05/17 05:27:04;;;;;;;8.00;2.95;;;16.00;74.60;;;;;;4914786;29;20426;-84
2023/05/17 05:29:29;;;;;;;8.35;3.00;;;16.10;74.60;;;;;;4913612;29;20469;-85
2023/05/17 05:31:55;;;;;;;7.13;2.63;;;16.10;74.60;;;;;;4913291;29;20024;-84
2023/05/17 05:34:20;;;;;;;7.13;2.70;;;16.10;74.60;;;;;;4928357;29;20032;-84
2023/05/17 05:36:46;;;;;;;9.25;2.95;;;16.20;75.20;;;;;;4912280;29;20035;-84
2023/05/17 05:39:11;;;;;;;6.30;2.95;;;16.10;74.60;;;;;;4954573;23;20081;-84
2023/05/17 05:41:37;;;;;;;7.72;2.60;;;16.20;74.80;;;;;;4935790;29;20114;-84
2023/05/17 05:44:02;;;;;;;6.93;2.78;;;16.10;74.70;;;;;;4918408;29;20034;-85
2023/05/17 05:46:28;;;;;;;7.32;2.60;;;16.10;75.30;;;;;;4936300;29;20374;-85
2023/05/17 05:48:53;;;;;;;7.38;2.72;;;16.10;75.00;;;;;;4919350;29;20476;-85
2023/05/17 05:51:19;;;;;;;6.75;2.60;;;16.10;75.00;;;;;;4919331;29;20076;-85
2023/05/17 05:53:44;;;;;;;7.50;2.65;;;16.10;75.00;;;;;;4918988;29;20027;-84
2023/05/17 05:56:10;;;;;;;7.88;2.90;;;16.10;75.10;;;;;;4919195;29;20020;-84
2023/05/17 05:58:36;;;;;;;7.25;2.80;;;16.10;75.10;;;;;;4919177;29;20854;-84
2023/05/17 06:01:01;;;;;;;7.60;2.72;;;16.20;75.10;;;;;;4919092;29;20015;-86
2023/05/17 06:03:27;;;;;;;8.43;3.00;;;16.20;75.00;;;;;;4918886;29;20126;-84
2023/05/17 06:05:52;;;;;;;7.82;2.38;;;16.20;75.00;;;;;;4936048;29;20055;-85
2023/05/17 06:08:18;;;;;;;7.15;2.58;;;16.30;74.90;;;;;;4918893;29;20042;-85
2023/05/17 06:10:44;;;;;;;7.50;2.55;;;16.30;74.80;;;;;;4919066;29;20035;-84
2023/05/17 06:13:10;;;;;;;8.20;2.50;;;16.30;74.90;;;;;;4918204;29;20467;-84
2023/05/17 06:15:35;;;;;;;7.60;2.40;;;16.30;74.80;;;;;;4918715;29;20054;-86
2023/05/17 06:18:01;;;;;;;7.30;2.75;;;16.40;74.80;;;;;;4935635;29;20106;-86
2023/05/17 06:20:26;;;;;;;8.57;2.80;;;16.40;74.70;;;;;;4935718;29;20152;-84
2023/05/17 06:22:52;;;;;;;8.13;2.80;;;16.40;74.70;;;;;;4918995;29;20032;-84
2023/05/17 06:25:17;;;;;;;6.22;2.33;;;16.40;74.60;;;;;;4918419;29;20036;-85
2023/05/17 06:27:43;;;;;;;5.82;2.22;;;16.40;74.60;;;;;;4918997;29;20027;-84
2023/05/17 06:30:09;;;;;;;6.32;2.40;;;16.40;74.70;;;;;;4935478;29;20110;-85
2023/05/17 06:32:35;;;;;;;7.60;2.53;;;16.40;74.70;;;;;;4935519;29;20032;-84
2023/05/17 06:35:01;;;;;;;7.57;2.50;;;16.40;74.70;;;;;;4918373;29;20118;-84
2023/05/17 06:37:26;;;;;;;8.23;2.63;;;16.40;74.70;;;;;;4935453;29;20035;-84
2023/05/17 06:39:52;;;;;;;6.72;2.38;;;16.40;74.80;;;;;;4918226;29;20042;-85
2023/05/17 06:42:17;;;;;;;6.78;2.38;;;16.30;74.40;;;;;;4918226;29;20034;-85
2023/05/17 06:44:43;;;;;;;8.25;2.65;;;16.30;74.30;;;;;;4918197;29;20031;-85
2023/05/17 06:47:09;;;;;;;6.32;1.90;;;16.30;74.20;;;;;;4918204;29;20027;-85
2023/05/17 06:49:35;;;;;;;6.40;2.50;;;16.30;74.20;;;;;;4918084;29;20024;-84
2023/05/17 06:52:02;;;;;;;6.47;2.30;;;16.30;74.30;;;;;;4918346;29;20458;-85
2023/05/17 06:54:29;;;;;;;7.32;2.40;;;16.30;74.10;;;;;;4917965;29;20548;-85
2023/05/17 06:56:58;;;;;;;7.85;2.85;;;16.30;74.40;;;;;;4913976;29;20028;-85
2023/05/17 06:59:23;;;;;;;6.05;2.08;;;16.20;74.30;;;;;;4914373;29;20097;-84
2023/05/17 07:01:49;;;;;;;5.72;2.53;;;16.20;74.30;;;;;;4914022;29;20425;-85
2023/05/17 07:04:14;;;;;;;7.65;2.67;;;16.30;74.30;;;;;;4914743;29;20028;-85
2023/05/17 07:06:40;;;;;;;6.30;2.30;;;16.30;74.60;;;;;;4913980;29;20027;-86
2023/05/17 07:09:06;;;;;;;5.90;2.00;;;16.30;74.40;;;;;;4914736;29;20028;-85
2023/05/17 07:11:31;;;;;;;6.60;2.33;;;16.30;74.50;;;;;;4914754;29;20024;-85
2023/05/17 07:13:57;;;;;;;6.93;2.28;;;16.30;74.60;;;;;;4914419;29;20028;-85
2023/05/17 07:16:22;;;;;;;7.82;2.70;;;16.30;74.60;;;;;;4914694;29;20032;-85
2023/05/17 07:18:48;;;;;;;6.75;2.33;;;16.30;74.70;;;;;;4914680;29;20024;-84
2023/05/17 07:21:13;;;;;;;7.05;2.47;;;16.30;74.70;;;;;;4914775;29;20028;-85
2023/05/17 07:23:38;;;;;;;7.75;2.50;;;16.30;74.60;;;;;;4914476;29;20063;-85
2023/05/17 07:26:04;;;;;;;7.78;2.20;;;16.30;74.60;;;;;;4913632;29;20032;-85
2023/05/17 07:28:30;;;;;;;6.47;2.20;;;16.30;74.60;;;;;;4915717;29;20546;-85
2023/05/17 07:30:56;;;;;;;5.70;2.33;;;16.30;74.70;;;;;;4914544;29;20027;-84
2023/05/17 07:33:21;;;;;;;6.00;1.92;;;16.30;74.60;;;;;;4915486;29;20087;-85
2023/05/17 07:35:47;;;;;;;4.78;1.92;;;16.30;74.40;;;;;;4914349;29;20028;-85
2023/05/17 07:38:12;;;;;;;7.40;2.10;;;16.40;74.60;;;;;;4914172;29;20021;-84
2023/05/17 07:40:37;;;;;;;6.32;2.00;;;16.40;74.40;;;;;;4914463;29;20105;-85
2023/05/17 07:43:03;;;;;;;5.90;2.15;;;16.50;74.30;;;;;;4914609;29;20122;-85
2023/05/17 07:45:28;;;;;;;6.13;2.20;;;16.50;74.20;;;;;;4914346;29;20028;-84
2023/05/17 07:47:54;;;;;;;5.63;2.10;;;16.50;73.90;;;;;;4915517;29;20582;-85
2023/05/17 07:50:20;;;;;;;5.38;2.03;;;16.60;73.80;;;;;;4917513;29;20024;-85
2023/05/17 07:52:45;;;;;;;7.30;2.28;;;16.70;73.60;;;;;;4917602;29;20059;-85
2023/05/17 07:55:11;;;;;;;8.10;2.30;;;16.70;73.40;;;;;;4917235;29;20024;-85
2023/05/17 07:57:36;;;;;;;6.47;2.00;;;16.70;73.20;;;;;;4934514;29;20064;-85
2023/05/17 08:00:03;;;;;;;5.53;2.00;;;16.80;73.70;;;;;;4917553;29;20028;-85
2023/05/17 08:02:28;;;;;;;5.82;2.00;;;16.80;73.20;;;;;;4917540;29;20024;-85
2023/05/17 08:04:54;;;;;;;6.45;1.90;;;16.80;72.90;;;;;;4917271;29;20034;-85
2023/05/17 08:07:19;;;;;;;5.32;1.95;;;16.80;73.00;;;;;;4917443;29;20030;-85
2023/05/17 08:09:45;;;;;;;4.97;1.70;;;16.80;73.00;;;;;;4917561;29;20027;-85
2023/05/17 08:12:10;;;;;;;6.20;2.00;;;16.80;73.00;;;;;;4917218;29;20373;-85
2023/05/17 08:14:36;;;;;;;6.47;2.08;;;16.80;72.40;;;;;;4917079;29;20028;-85
2023/05/17 08:17:01;;;;;;;5.18;1.80;;;16.80;72.40;;;;;;4917443;29;20389;-85
2023/05/17 08:19:27;;;;;;;7.30;2.13;;;16.80;71.70;;;;;;4917340;29;20122;-84
2023/05/17 08:21:52;;;;;;;6.03;1.92;;;16.80;71.60;;;;;;4917567;29;20024;-86
2023/05/17 08:24:18;;;;;;;5.00;1.60;;;16.80;72.40;;;;;;4934106;29;20028;-85
2023/05/17 08:26:43;;;;;;;5.43;2.05;;;16.80;72.60;;;;;;4917126;29;20027;-85
2023/05/17 08:29:09;;;;;;;6.40;2.10;;;16.80;72.70;;;;;;4934130;29;20474;-84
2023/05/17 08:31:34;;;;;;;5.72;2.00;;;16.80;72.80;;;;;;4917257;29;20087;-85
2023/05/17 08:34:00;;;;;;;6.07;1.98;;;16.70;72.70;;;;;;4917001;29;20111;-85
2023/05/17 08:36:25;;;;;;;4.82;1.65;;;16.70;73.00;;;;;;4917630;29;20027;-84
2023/05/17 08:38:51;;;;;;;4.25;1.52;;;16.70;73.10;;;;;;4920529;29;20036;-85
2023/05/17 08:41:17;;;;;;;4.43;1.45;;;16.60;73.10;;;;;;4937583;29;20036;-85
2023/05/17 08:43:43;;;;;;;5.05;1.70;;;16.60;73.10;;;;;;4921177;29;20218;-83
2023/05/17 08:46:09;;;;;;;5.90;1.60;;;16.60;73.10;;;;;;4938656;29;20532;-84
2023/05/17 08:48:40;;;;;;;5.75;1.80;;;16.60;73.20;;;;;;4937782;29;20114;-84
2023/05/17 08:51:07;;;;;;;4.30;1.70;;;16.60;73.10;;;;;;4920667;29;20382;-84
2023/05/17 08:53:34;;;;;;;3.22;1.40;;;16.60;73.10;;;;;;4920079;29;20040;-84
2023/05/17 08:56:01;;;;;;;6.25;1.80;;;16.60;73.00;;;;;;4920319;29;20024;-85
2023/05/17 08:58:30;;;;;;;4.00;1.52;;;16.60;73.00;;;;;;4937444;29;20028;-85
2023/05/17 09:00:57;;;;;;;4.35;1.45;;;16.60;73.10;;;;;;4920342;29;20115;-85
2023/05/17 09:03:24;;;;;;;4.90;1.77;;;16.60;73.10;;;;;;4937356;29;20389;-85
2023/05/17 09:05:53;;;;;;;4.25;1.52;;;16.60;72.90;;;;;;4920063;29;20572;-85
2023/05/17 09:08:22;;;;;;;6.03;1.80;;;16.60;72.90;;;;;;4919990;29;20055;-85
2023/05/17 09:10:48;;;;;;;3.65;1.48;;;16.70;73.30;;;;;;4920086;29;20027;-84
2023/05/17 09:13:13;;;;;;;4.72;1.65;;;16.70;72.70;;;;;;4936899;29;20034;-84
2023/05/17 09:15:48;;;;;;;3.90;1.38;;;16.70;72.70;;;;;;4920006;29;20118;-84
2023/05/17 09:18:14;;;;;;;4.82;1.55;;;16.80;72.50;;;;;;4919859;29;20019;-85
2023/05/17 09:20:40;;;;;;;5.57;1.50;;;16.70;72.50;;;;;;4936957;29;20031;-85
2023/05/17 09:23:08;;;;;;;4.35;1.60;;;16.80;72.50;;;;;;4936857;29;20039;-85
2023/05/17 09:25:35;;;;;;;4.60;1.50;;;16.80;72.60;;;;;;4919832;29;20035;-85
2023/05/17 09:28:06;;;;;;;4.22;1.50;;;16.80;72.50;;;;;;4936656;29;20079;-85
2023/05/17 09:30:32;;;;;;;;;;;16.70;72.50;;;;;;4920087;29;20028;-85
2023/05/17 09:33:07;;;;;;;4.55;1.58;;;16.70;72.40;;;;;;4919380;29;19914;-86
2023/05/17 09:35:34;;;;;;;4.63;1.50;;;16.80;72.30;;;;;;4936696;29;20102;-84
2023/05/17 09:38:10;;;;;;;4.93;1.80;;;16.70;72.20;;;;;;4919339;29;20032;-86
2023/05/17 09:40:44;;;;;;;4.05;1.52;;;16.70;72.20;;;;;;4936718;29;20260;-85
2023/05/17 09:43:11;;;;;;;4.63;1.40;;;16.80;72.30;;;;;;4919327;29;20024;-85
2023/05/17 09:45:37;;;;;;;3.92;1.50;;;16.80;72.20;;;;;;4919307;29;20530;-86
2023/05/17 09:48:14;;;;;;;5.40;1.83;;;16.80;72.20;;;;;;4918627;29;20055;-85
2023/05/17 09:50:48;;;;;;;4.05;1.30;;;16.80;72.20;;;;;;4919482;29;20526;-85
2023/05/17 09:53:26;;;;;;;5.68;1.58;;;16.80;72.20;;;;;;4919207;29;20043;-85
2023/05/17 09:55:53;;;;;;;3.83;1.20;;;16.80;72.20;;;;;;4936380;29;20059;-85
2023/05/17 09:58:20;;;;;;;5.25;1.48;;;16.80;72.80;;;;;;4919095;29;20161;-85
2023/05/17 10:00:50;;;;;;;4.90;1.35;;;16.80;72.30;;;;;;4919259;29;20111;-85
2023/05/17 10:03:16;;;;;;;5.88;1.50;;;16.80;72.10;;;;;;4936031;29;20028;-84
2023/05/17 10:05:44;;;;;;;4.35;1.45;;;16.80;71.00;;;;;;4919042;29;20052;-85
2023/05/17 10:08:13;;;;;;;5.78;1.42;;;16.80;71.90;;;;;;4918920;29;20449;-86
2023/05/17 10:10:42;;;;;;;5.50;1.65;;;16.80;71.40;;;;;;4919090;29;20024;-85
2023/05/17 10:13:11;;;;;;;6.43;1.75;;;16.80;72.00;;;;;;4918777;29;20028;-85
2023/05/17 10:15:38;;;;;;;5.47;1.60;;;16.70;72.30;;;;;;4935939;29;20067;-85
2023/05/17 10:18:06;;;;;;;3.78;1.33;;;16.70;72.30;;;;;;4918798;29;20027;-85
2023/05/17 10:20:32;;;;;;;4.03;1.38;;;16.70;72.30;;;;;;4935879;29;20535;-85
2023/05/17 10:23:02;;;;;;;4.47;1.25;;;16.70;72.00;;;;;;4918805;29;20032;-85
2023/05/17 10:25:28;;;;;;;6.47;1.40;;;16.80;72.00;;;;;;4918515;29;20032;-85
2023/05/17 10:27:54;;;;;;;4.80;1.73;;;16.80;71.80;;;;;;4918838;29;20091;-85
2023/05/17 10:30:20;;;;;;;3.75;1.25;;;16.80;71.80;;;;;;4935804;29;20043;-85
2023/05/17 10:32:46;;;;;;;5.32;1.55;;;16.90;71.90;;;;;;4918541;29;20028;-84
2023/05/17 10:35:14;;;;;;;5.03;1.45;;;16.80;71.90;;;;;;4918295;29;20122;-85
2023/05/17 10:37:40;;;;;;;4.22;1.40;;;16.80;72.00;;;;;;4918584;29;20061;-84
2023/05/17 10:40:11;;;;;;;5.95;1.48;;;16.90;71.70;;;;;;4935248;29;20052;-85
2023/05/17 10:42:41;;;;;;;;;;;16.90;71.70;;;;;;4935989;29;20019;-85
2023/05/17 10:45:08;;;;;;;5.57;1.58;;;16.90;71.60;;;;;;4918271;29;19907;-85
2023/05/17 10:47:34;;;;;;;4.32;1.42;;;16.90;71.50;;;;;;4935331;29;20051;-85
2023/05/17 10:50:00;;;;;;;4.85;1.50;;;16.90;71.80;;;;;;4918160;29;20032;-85
2023/05/17 10:52:26;;;;;;;4.03;1.40;;;16.90;71.80;;;;;;4918331;29;20032;-84
2023/05/17 10:54:51;;;;;;;3.63;1.30;;;16.90;71.60;;;;;;4918173;29;20035;-85
2023/05/17 10:57:33;;;;;;;5.70;1.60;;;16.90;71.40;;;;;;4918280;29;20035;-84
2023/05/17 11:00:00;;;;;;;4.55;1.15;;;16.90;71.30;;;;;;4935137;29;20437;-85
2023/05/17 11:02:27;;;;;;;3.97;1.20;;;17.00;71.30;;;;;;4918107;29;20031;-85
2023/05/17 11:04:54;;;;;;;4.70;1.40;;;17.00;71.20;;;;;;4917938;29;20477;-84
2023/05/17 11:07:30;;;;;;;3.03;1.20;;;17.00;71.10;;;;;;4918033;29;20405;-85
2023/05/17 11:09:59;;;;;;;4.03;1.25;;;17.00;71.30;;;;;;4917837;29;20107;-85
2023/05/17 11:12:32;;;;;;;3.95;1.20;;;17.00;71.40;;;;;;4917926;29;20024;-84
2023/05/17 11:14:58;;;;;;;2.85;1.38;;;17.00;71.60;;;;;;4917673;29;20024;-84
2023/05/17 11:17:34;;;;;;;5.80;1.77;;;16.90;71.70;;;;;;4917786;29;20610;-86
2023/05/17 11:20:09;;;;;;;3.67;1.30;;;16.90;71.50;;;;;;4935052;29;20489;-84
2023/05/17 11:22:47;;;;;;;4.10;1.42;;;17.00;71.50;;;;;;4917822;29;20531;-83
2023/05/17 11:25:13;;;;;;;3.15;1.27;;;17.00;71.10;;;;;;4917573;29;20094;-84
2023/05/17 11:27:45;;;;;;;4.28;1.13;;;17.00;71.00;;;;;;4917869;29;20035;-85
2023/05/17 11:30:29;;;;;;;4.93;1.75;;;17.10;71.10;;;;;;4934614;29;20024;-85
2023/05/17 11:33:00;;;;;;;5.25;1.30;;;17.10;70.90;;;;;;4917736;29;20028;-84
2023/05/17 11:35:31;;;;;;;3.50;1.20;;;17.10;71.50;;;;;;4917544;29;20062;-85
2023/05/17 11:38:19;;;;;;;5.78;1.40;;;17.10;71.00;;;;;;4917486;29;20041;-85
2023/05/17 11:40:46;;;;;;;5.72;1.15;;;17.10;70.90;;;;;;4999984;23;20058;-84
2023/05/17 11:43:13;;;;;;;4.25;1.17;;;17.10;69.80;;;;;;4936795;29;20023;-85
2023/05/17 11:45:42;;;;;;;4.40;1.38;;;17.10;69.80;;;;;;4936846;29;20027;-84
2023/05/17 11:48:08;;;;;;;3.40;1.10;;;17.00;70.00;;;;;;4936707;29;20031;-83
2023/05/17 11:50:36;;;;;;;4.63;1.38;;;17.10;70.50;;;;;;4936911;29;20031;-83
2023/05/17 11:53:06;;;;;;;4.78;1.48;;;17.00;70.70;;;;;;4937913;29;20031;-84
2023/05/17 11:55:46;;;;;;;4.57;1.40;;;17.00;71.30;;;;;;4937678;29;20507;-84
2023/05/17 11:58:14;;;;;;;4.03;1.50;;;16.90;71.30;;;;;;4937115;29;20034;-84
2023/05/17 12:00:40;;;;;;;4.20;1.27;;;16.90;71.30;;;;;;4936714;29;20027;-83
2023/05/17 12:03:19;;;;;;;5.70;1.50;;;16.90;71.40;;;;;;4937132;29;20039;-84
2023/05/17 12:05:47;;;;;;;4.78;1.70;;;16.90;71.50;;;;;;4936599;29;20050;-85
2023/05/17 12:08:18;;;;;;;3.03;1.17;;;16.90;71.60;;;;;;4936400;29;20071;-84
2023/05/17 12:10:51;;;;;;;4.40;1.52;;;16.90;71.60;;;;;;4936579;28;20027;-83
2023/05/17 12:13:18;;;;;;;3.75;1.40;;;16.90;71.60;;;;;;4939729;29;20117;-83
2023/05/17 12:15:47;;;;;;;5.50;1.48;;;16.90;71.50;;;;;;4940235;29;20027;-84
2023/05/17 12:18:13;;;;;;;3.80;1.30;;;16.90;71.50;;;;;;4968031;29;20514;-86
2023/05/17 12:20:55;;;;;;;3.53;1.30;;;16.90;71.50;;;;;;4952294;29;20487;-86
2023/05/17 12:23:31;;;;;;;4.70;1.40;;;16.90;71.70;;;;;;4952352;29;20392;-85
2023/05/17 12:26:04;;;;;;;4.68;1.50;;;16.90;71.70;;;;;;4951404;29;20136;-85
2023/05/17 12:28:29;;;;;;;3.28;1.23;;;16.80;71.60;;;;;;4951345;29;20038;-85
2023/05/17 12:30:57;;;;;;;3.28;1.15;;;16.90;71.60;;;;;;4950990;29;20480;-84
2023/05/17 12:33:24;;;;;;;4.93;1.33;;;16.80;71.50;;;;;;4944225;29;20031;-86
2023/05/17 12:35:50;;;;;;;5.80;1.50;;;16.90;71.50;;;;;;4942726;29;20110;-84
2023/05/17 12:38:16;;;;;;;5.53;1.48;;;16.90;71.50;;;;;;4949608;29;20414;-86
2023/05/17 12:40:42;;;;;;;3.50;1.13;;;16.90;71.50;;;;;;4949204;29;20507;-85
2023/05/17 12:43:08;;;;;;;3.60;1.58;;;16.80;71.40;;;;;;4949272;29;20039;-84
2023/05/17 12:45:34;;;;;;;4.22;1.25;;;16.80;71.50;;;;;;4949176;29;20504;-85
2023/05/17 12:47:59;;;;;;;4.80;1.50;;;16.80;71.60;;;;;;4948280;29;20492;-85
2023/05/17 12:50:29;;;;;;;5.53;1.52;;;16.80;71.60;;;;;;4943818;29;20020;-84
2023/05/17 12:52:55;;;;;;;4.88;1.58;;;16.80;71.70;;;;;;4958408;29;20027;-84
2023/05/17 12:55:21;;;;;;;3.42;1.38;;;16.80;71.60;;;;;;4947707;29;20145;-85
2023/05/17 12:57:51;;;;;;;5.57;1.40;;;16.80;71.60;;;;;;4947541;29;20437;-87
2023/05/17 13:00:18;;;;;;;3.85;1.10;;;16.80;71.50;;;;;;4944932;29;20034;-84
2023/05/17 13:02:43;;;;;;;5.00;1.80;;;16.80;71.40;;;;;;4939305;29;20395;-84
2023/05/17 13:05:21;;;;;;;5.03;1.42;;;16.80;71.30;;;;;;4945947;29;20038;-87
2023/05/17 13:07:47;;;;;;;3.92;1.27;;;16.80;71.20;;;;;;4947050;29;20027;-85
2023/05/17 13:10:20;;;;;;;5.47;1.55;;;16.90;71.20;;;;;;4950089;29;20027;-85
2023/05/17 13:12:59;;;;;;;4.85;1.38;;;16.90;71.20;;;;;;4951555;29;20031;-86
2023/05/17 13:15:29;;;;;;;4.20;1.23;;;16.90;71.00;;;;;;4951083;29;20030;-86
2023/05/17 13:17:55;;;;;;;6.50;1.98;;;16.90;71.00;;;;;;4950538;29;20046;-84
2023/05/17 13:20:21;;;;;;;4.53;1.23;;;16.90;71.00;;;;;;4950317;29;20599;-84
2023/05/17 13:22:47;;;;;;;4.38;1.40;;;16.90;71.00;;;;;;4949348;29;20027;-85
2023/05/17 13:25:12;;;;;;;3.47;1.33;;;16.90;71.00;;;;;;4948866;29;20032;-85
2023/05/17 13:27:43;;;;;;;4.07;1.20;;;16.90;70.90;;;;;;4949383;29;20031;-86
2023/05/17 13:30:10;;;;;;;3.72;1.27;;;16.80;69.70;;;;;;4948389;29;20051;-85